createdAt,value
2023-02-08T00:00:54.067Z,50.70
2023-02-08T00:01:54.038Z,51.90
2023-02-08T00:02:54.282Z,53.60
2023-02-08T00:03:54.128Z,51.70
2023-02-08T00:04:54.030Z,48.50
2023-02-08T00:05:54.109Z,49.80
2023-02-08T00:06:54.119Z,50.10
2023-02-08T00:07:54.058Z,50.90
2023-02-08T00:08:54.023Z,49.50
2023-02-08T00:09:54.616Z,56.20
2023-02-08T00:10:54.108Z,50.30
2023-02-08T00:11:54.295Z,49.10
2023-02-08T00:12:53.994Z,44.50
2023-02-08T00:13:53.967Z,45.30
2023-02-08T00:14:54.147Z,48.20
2023-02-08T00:15:54.043Z,50.50
2023-02-08T00:16:53.966Z,56.30
2023-02-08T00:17:54.367Z,50.40
2023-02-08T00:18:53.948Z,44.60
2023-02-08T00:19:53.936Z,45.70
2023-02-08T00:20:53.957Z,44.80
2023-02-08T00:21:53.931Z,47.60
2023-02-08T00:22:53.926Z,44.00
2023-02-08T00:23:54.615Z,47.80
2023-02-08T00:24:53.913Z,49.60
2023-02-08T00:25:53.916Z,46.40
2023-02-08T00:26:54.046Z,45.60
2023-02-08T00:27:53.906Z,45.90
2023-02-08T00:28:53.902Z,43.20
2023-02-08T00:29:54.050Z,40.10
2023-02-08T00:30:54.082Z,43.00
2023-02-08T00:31:54.102Z,43.80
2023-02-08T00:32:53.870Z,43.90
2023-02-08T00:33:53.860Z,46.90
2023-02-08T00:34:53.987Z,45.00
2023-02-08T00:35:53.867Z,41.40
2023-02-08T00:36:53.905Z,44.10
2023-02-08T00:37:53.827Z,41.70
2023-02-08T00:38:53.824Z,43.60
2023-02-08T00:39:53.826Z,44.20
2023-02-08T00:40:54.142Z,40.30
2023-02-08T00:41:53.812Z,42.00
2023-02-08T00:42:53.803Z,41.80
2023-02-08T00:43:53.792Z,40.70
2023-02-08T00:44:53.791Z,39.70
2023-02-08T00:45:54.151Z,43.10
2023-02-08T00:46:54.246Z,44.80
2023-02-08T00:47:53.802Z,40.10
2023-02-08T00:48:53.771Z,43.80
2023-02-08T00:49:53.759Z,43.50
2023-02-08T00:50:53.760Z,40.10
2023-02-08T00:51:53.990Z,40.80
2023-02-08T00:52:53.743Z,39.10
2023-02-08T00:53:53.790Z,37.90
2023-02-08T00:54:53.726Z,35.20
2023-02-08T00:55:54.735Z,37.20
2023-02-08T00:56:54.237Z,34.40
2023-02-08T00:57:53.711Z,38.40
2023-02-08T00:58:53.725Z,38.10
2023-02-08T00:59:53.696Z,40.60
2023-02-08T01:00:53.805Z,42.70
2023-02-08T01:01:53.756Z,36.20
2023-02-08T01:02:53.687Z,34.70
2023-02-08T01:03:53.682Z,35.40
2023-02-08T01:04:53.669Z,35.20
2023-02-08T01:05:53.664Z,32.30
2023-02-08T01:06:53.772Z,35.10
2023-02-08T01:07:53.682Z,34.20
2023-02-08T01:08:53.646Z,35.30
2023-02-08T01:09:53.671Z,36.10
2023-02-08T01:10:53.652Z,41.10
2023-02-08T01:11:53.652Z,37.90
2023-02-08T01:12:55.671Z,36.60
2023-02-08T01:13:53.617Z,37.90
2023-02-08T01:14:53.945Z,31.50
2023-02-08T01:15:53.619Z,33.20
2023-02-08T01:16:53.784Z,30.70
2023-02-08T01:17:53.590Z,34.40
2023-02-08T01:18:53.588Z,32.90
2023-02-08T01:19:53.579Z,31.80
2023-02-08T01:20:53.588Z,31.10
2023-02-08T01:21:53.588Z,29.90
2023-02-08T01:22:53.559Z,31.80
2023-02-08T01:23:53.551Z,30.00
2023-02-08T01:24:53.547Z,31.90
2023-02-08T01:25:53.537Z,30.00
2023-02-08T01:26:53.606Z,27.60
2023-02-08T01:27:53.570Z,27.50
2023-02-08T01:28:53.525Z,28.20
2023-02-08T01:29:53.824Z,28.00
2023-02-08T01:30:53.541Z,27.30
2023-02-08T01:31:53.583Z,29.70
2023-02-08T01:32:53.521Z,27.20
2023-02-08T01:33:53.489Z,28.10
2023-02-08T01:34:53.487Z,32.80
2023-02-08T01:35:53.706Z,30.00
2023-02-08T01:36:53.494Z,27.80
2023-02-08T01:37:53.891Z,27.10
2023-02-08T01:38:53.473Z,29.20
2023-02-08T01:39:53.521Z,27.40
2023-02-08T01:40:53.459Z,26.80
2023-02-08T01:41:53.448Z,28.70
2023-02-08T01:42:53.462Z,28.30
2023-02-08T01:43:53.436Z,28.20
2023-02-08T01:44:53.429Z,31.10
2023-02-08T01:45:53.471Z,26.30
2023-02-08T01:46:53.750Z,28.40
2023-02-08T01:47:53.425Z,29.30
2023-02-08T01:48:54.399Z,27.40
2023-02-08T01:49:54.010Z,28.20
2023-02-08T01:50:54.175Z,27.50
2023-02-08T01:51:54.427Z,27.60
2023-02-08T01:52:54.348Z,23.80
2023-02-08T01:53:54.237Z,22.50
2023-02-08T01:54:53.559Z,27.50
2023-02-08T01:55:54.333Z,26.60
2023-02-08T01:56:53.386Z,26.50
2023-02-08T01:57:54.066Z,26.90
2023-02-08T01:58:53.843Z,27.60
2023-02-08T01:59:53.330Z,27.80
2023-02-08T02:00:54.396Z,26.10
2023-02-08T02:01:54.033Z,27.30
2023-02-08T02:02:54.181Z,24.40
2023-02-08T02:03:53.436Z,24.40
2023-02-08T02:04:53.445Z,23.20
2023-02-08T02:05:53.349Z,26.90
2023-02-08T02:06:53.291Z,19.60
2023-02-08T02:07:53.507Z,24.00
2023-02-08T02:08:53.321Z,23.80
2023-02-08T02:09:53.688Z,19.70
2023-02-08T02:10:53.686Z,22.50
2023-02-08T02:11:53.691Z,26.60
2023-02-08T02:12:53.549Z,24.30
2023-02-08T02:13:53.709Z,23.10
2023-02-08T02:14:53.926Z,25.70
2023-02-08T02:15:53.932Z,24.70
2023-02-08T02:16:53.354Z,21.40
2023-02-08T02:17:53.528Z,21.80
2023-02-08T02:18:53.291Z,22.20
2023-02-08T02:19:53.347Z,23.10
2023-02-08T02:20:53.345Z,21.50
2023-02-08T02:21:53.224Z,23.30
2023-02-08T02:22:53.427Z,23.10
2023-02-08T02:23:53.196Z,19.20
2023-02-08T02:24:53.194Z,19.60
2023-02-08T02:25:53.383Z,23.10
2023-02-08T02:26:53.211Z,23.10
2023-02-08T02:27:53.448Z,20.80
2023-02-08T02:28:53.218Z,21.00
2023-02-08T02:29:53.206Z,22.00
2023-02-08T02:30:53.229Z,23.00
2023-02-08T02:31:53.252Z,20.30
2023-02-08T02:32:53.225Z,21.50
2023-02-08T02:33:53.234Z,21.60
2023-02-08T02:34:53.269Z,23.50
2023-02-08T02:35:53.152Z,21.70
2023-02-08T02:36:53.269Z,19.90
2023-02-08T02:37:53.482Z,21.10
2023-02-08T02:38:53.493Z,21.10
2023-02-08T02:39:53.500Z,21.80
2023-02-08T02:40:53.097Z,20.90
2023-02-08T02:41:53.120Z,21.30
2023-02-08T02:42:53.099Z,21.90
2023-02-08T02:43:53.288Z,22.10
2023-02-08T02:44:53.102Z,22.10
2023-02-08T02:45:53.142Z,20.50
2023-02-08T02:46:53.315Z,23.30
2023-02-08T02:47:53.328Z,21.70
2023-02-08T02:48:53.129Z,22.10
2023-02-08T02:49:53.169Z,21.70
2023-02-08T02:50:53.480Z,23.10
2023-02-08T02:51:53.052Z,21.30
2023-02-08T02:52:53.051Z,20.50
2023-02-08T02:53:53.170Z,19.60
2023-02-08T02:54:53.184Z,20.00
2023-02-08T02:55:53.041Z,22.10
2023-02-08T02:56:53.179Z,19.80
2023-02-08T02:57:53.190Z,21.00
2023-02-08T02:58:53.188Z,21.20
2023-02-08T02:59:53.199Z,20.40
2023-02-08T03:00:53.275Z,19.50
2023-02-08T03:01:52.997Z,20.30
2023-02-08T03:02:53.215Z,17.50
2023-02-08T03:03:53.300Z,18.20
2023-02-08T03:04:53.228Z,20.50
2023-02-08T03:05:53.240Z,18.90
2023-02-08T03:06:53.249Z,17.80
2023-02-08T03:07:53.086Z,19.50
2023-02-08T03:08:53.315Z,18.10
2023-02-08T03:09:53.267Z,19.90
2023-02-08T03:10:53.266Z,17.50
2023-02-08T03:11:53.276Z,18.90
2023-02-08T03:12:52.964Z,19.70
2023-02-08T03:13:53.126Z,19.70
2023-02-08T03:14:53.088Z,18.90
2023-02-08T03:15:53.354Z,20.50
2023-02-08T03:16:53.360Z,20.70
2023-02-08T03:17:53.363Z,19.80
2023-02-08T03:18:53.373Z,20.70
2023-02-08T03:19:53.383Z,17.60
2023-02-08T03:20:52.932Z,18.10
2023-02-08T03:21:52.932Z,18.80
2023-02-08T03:22:52.965Z,18.10
2023-02-08T03:23:53.001Z,25.30
2023-02-08T03:24:52.871Z,23.20
2023-02-08T03:25:53.172Z,26.10
2023-02-08T03:26:52.857Z,22.50
2023-02-08T03:27:52.901Z,22.60
2023-02-08T03:28:52.846Z,23.50
2023-02-08T03:29:52.846Z,22.60
2023-02-08T03:30:53.094Z,20.90
2023-02-08T03:31:53.103Z,22.20
2023-02-08T03:32:52.835Z,19.90
2023-02-08T03:33:53.093Z,21.40
2023-02-08T03:34:53.139Z,23.20
2023-02-08T03:35:53.248Z,32.50
2023-02-08T03:36:52.815Z,28.90
2023-02-08T03:37:53.259Z,31.50
2023-02-08T03:38:53.048Z,26.50
2023-02-08T03:39:52.858Z,27.50
2023-02-08T03:40:53.326Z,30.40
2023-02-08T03:41:53.486Z,33.60
2023-02-08T03:42:52.937Z,28.10
2023-02-08T03:43:53.286Z,29.20
2023-02-08T03:44:53.046Z,29.50
2023-02-08T03:45:52.936Z,27.10
2023-02-08T03:46:52.897Z,28.90
2023-02-08T03:47:53.307Z,32.30
2023-02-08T03:48:52.705Z,35.70
2023-02-08T03:49:52.713Z,33.00
2023-02-08T03:50:53.792Z,35.90
2023-02-08T03:51:53.162Z,32.90
2023-02-08T03:52:52.723Z,36.20
2023-02-08T03:53:52.731Z,36.10
2023-02-08T03:54:52.948Z,33.50
2023-02-08T03:55:52.817Z,32.90
2023-02-08T03:56:53.228Z,30.40
2023-02-08T03:57:53.168Z,35.50
2023-02-08T03:58:52.658Z,29.80
2023-02-08T03:59:52.670Z,35.20
2023-02-08T04:00:52.785Z,31.80
2023-02-08T04:01:52.786Z,31.90
2023-02-08T04:02:52.916Z,32.80
2023-02-08T04:03:52.801Z,32.20
2023-02-08T04:04:52.872Z,32.30
2023-02-08T04:05:52.641Z,34.40
2023-02-08T04:06:53.022Z,30.70
2023-02-08T04:07:53.038Z,29.90
2023-02-08T04:08:52.629Z,30.40
2023-02-08T04:09:52.642Z,29.00
2023-02-08T04:10:53.058Z,31.60
2023-02-08T04:11:52.848Z,25.30
2023-02-08T04:12:53.267Z,32.80
2023-02-08T04:13:53.138Z,28.70
2023-02-08T04:14:52.869Z,27.70
2023-02-08T04:15:52.585Z,30.50
2023-02-08T04:16:53.159Z,29.70
2023-02-08T04:17:52.547Z,28.80
2023-02-08T04:18:53.096Z,29.10
2023-02-08T04:19:53.312Z,29.70
2023-02-08T04:20:53.390Z,31.10
2023-02-08T04:21:52.580Z,30.90
2023-02-08T04:22:52.737Z,32.40
2023-02-08T04:23:53.336Z,33.40
2023-02-08T04:24:53.011Z,30.90
2023-02-08T04:25:52.544Z,30.50
2023-02-08T04:26:52.544Z,26.00
2023-02-08T04:27:52.568Z,28.60
2023-02-08T04:28:52.589Z,28.60
2023-02-08T04:29:52.575Z,30.70
2023-02-08T04:30:52.724Z,28.30
2023-02-08T04:31:52.714Z,26.90
2023-02-08T04:32:52.795Z,28.80
2023-02-08T04:33:52.455Z,26.20
2023-02-08T04:34:52.803Z,26.90
2023-02-08T04:35:52.486Z,29.60
2023-02-08T04:36:52.438Z,26.10
2023-02-08T04:37:52.425Z,26.70
2023-02-08T04:38:52.420Z,25.20
2023-02-08T04:39:52.451Z,27.30
2023-02-08T04:40:52.504Z,26.60
2023-02-08T04:41:52.645Z,26.60
2023-02-08T04:42:52.653Z,27.70
2023-02-08T04:43:52.661Z,24.80
2023-02-08T04:44:52.732Z,23.50
2023-02-08T04:45:52.742Z,26.00
2023-02-08T04:46:52.882Z,22.40
2023-02-08T04:47:52.372Z,22.10
2023-02-08T04:48:52.360Z,26.50
2023-02-08T04:49:53.001Z,25.70
2023-02-08T04:50:52.374Z,25.50
2023-02-08T04:51:52.522Z,21.50
2023-02-08T04:52:52.335Z,26.50
2023-02-08T04:53:52.329Z,23.50
2023-02-08T04:54:52.331Z,28.00
2023-02-08T04:55:52.341Z,25.70
2023-02-08T04:56:52.376Z,23.40
2023-02-08T04:57:52.338Z,19.90
2023-02-08T04:58:52.515Z,20.90
2023-02-08T04:59:52.454Z,22.80
2023-02-08T05:00:52.439Z,19.80
2023-02-08T05:01:52.476Z,18.80
2023-02-08T05:02:52.388Z,17.30
2023-02-08T05:03:52.406Z,18.60
2023-02-08T05:04:52.471Z,16.60
2023-02-08T05:05:52.474Z,19.40
2023-02-08T05:06:52.484Z,16.20
2023-02-08T05:07:52.489Z,17.70
2023-02-08T05:08:52.252Z,17.90
2023-02-08T05:09:52.504Z,20.00
2023-02-08T05:10:52.509Z,25.80
2023-02-08T05:11:52.427Z,17.30
2023-02-08T05:12:52.300Z,16.90
2023-02-08T05:13:52.632Z,16.80
2023-02-08T05:14:52.253Z,18.40
2023-02-08T05:15:52.216Z,17.80
2023-02-08T05:16:52.250Z,21.00
2023-02-08T05:17:52.207Z,17.60
2023-02-08T05:18:52.165Z,18.70
2023-02-08T05:19:52.187Z,17.50
2023-02-08T05:20:52.179Z,16.60
2023-02-08T05:21:52.184Z,20.60
2023-02-08T05:22:52.171Z,17.30
2023-02-08T05:23:52.142Z,17.90
2023-02-08T05:24:52.142Z,17.60
2023-02-08T05:25:52.152Z,17.40
2023-02-08T05:26:52.131Z,17.60
2023-02-08T05:27:52.158Z,17.90
2023-02-08T05:28:52.137Z,17.90
2023-02-08T05:29:52.146Z,17.50
2023-02-08T05:30:52.174Z,17.40
2023-02-08T05:31:52.168Z,16.50
2023-02-08T05:32:52.167Z,17.20
2023-02-08T05:33:52.089Z,17.90
2023-02-08T05:34:53.534Z,17.30
2023-02-08T05:35:52.279Z,19.90
2023-02-08T05:36:52.291Z,17.70
2023-02-08T05:37:52.077Z,17.10
2023-02-08T05:38:52.053Z,18.00
2023-02-08T05:39:52.313Z,16.70
2023-02-08T05:40:52.131Z,16.80
2023-02-08T05:41:52.112Z,17.80
2023-02-08T05:42:52.041Z,16.20
2023-02-08T05:43:52.130Z,18.90
2023-02-08T05:44:52.331Z,18.10
2023-02-08T05:45:52.349Z,18.30
2023-02-08T05:46:52.057Z,19.90
2023-02-08T05:47:52.059Z,16.90
2023-02-08T05:48:52.358Z,17.50
2023-02-08T05:49:52.369Z,17.30
2023-02-08T05:50:51.987Z,19.60
2023-02-08T05:51:52.277Z,18.10
2023-02-08T05:52:52.009Z,20.60
2023-02-08T05:53:51.986Z,17.70
2023-02-08T05:54:51.993Z,17.60
2023-02-08T05:55:52.028Z,17.70
2023-02-08T05:56:51.944Z,18.40
2023-02-08T05:57:52.011Z,17.90
2023-02-08T05:58:51.942Z,20.30
2023-02-08T05:59:51.952Z,20.20
2023-02-08T06:00:51.934Z,21.70
2023-02-08T06:01:52.335Z,18.40
2023-02-08T06:02:52.311Z,19.90
2023-02-08T06:03:52.081Z,17.40
2023-02-08T06:04:51.897Z,21.70
2023-02-08T06:05:51.991Z,25.10
2023-02-08T06:06:52.294Z,25.90
2023-02-08T06:07:52.371Z,26.20
2023-02-08T06:08:52.851Z,21.30
2023-02-08T06:09:52.161Z,24.40
2023-02-08T06:10:51.960Z,24.50
2023-02-08T06:11:52.344Z,26.50
2023-02-08T06:12:52.824Z,24.20
2023-02-08T06:13:52.067Z,27.60
2023-02-08T06:14:52.082Z,28.90
2023-02-08T06:15:52.414Z,23.30
2023-02-08T06:16:52.139Z,21.20
2023-02-08T06:17:51.928Z,28.50
2023-02-08T06:18:52.434Z,30.80
2023-02-08T06:19:52.046Z,24.90
2023-02-08T06:20:52.666Z,28.00
2023-02-08T06:21:52.802Z,30.80
2023-02-08T06:22:51.904Z,26.50
2023-02-08T06:23:51.803Z,27.10
2023-02-08T06:24:51.792Z,25.30
2023-02-08T06:25:51.802Z,22.60
2023-02-08T06:26:51.913Z,25.00
2023-02-08T06:27:51.969Z,25.20
2023-02-08T06:28:51.904Z,28.50
2023-02-08T06:29:52.045Z,25.80
2023-02-08T06:30:51.757Z,30.80
2023-02-08T06:31:51.935Z,29.00
2023-02-08T06:32:51.751Z,30.10
2023-02-08T06:33:51.775Z,28.10
2023-02-08T06:34:51.742Z,30.10
2023-02-08T06:35:51.863Z,28.70
2023-02-08T06:36:51.871Z,30.60
2023-02-08T06:37:51.880Z,27.10
2023-02-08T06:38:51.765Z,25.30
2023-02-08T06:39:51.981Z,25.10
2023-02-08T06:40:51.994Z,25.80
2023-02-08T06:41:51.999Z,30.30
2023-02-08T06:42:51.723Z,28.00
2023-02-08T06:43:51.719Z,28.90
2023-02-08T06:44:55.282Z,27.90
2023-02-08T06:45:52.257Z,31.40
2023-02-08T06:46:51.735Z,26.20
2023-02-08T06:47:51.659Z,23.20
2023-02-08T06:48:52.156Z,26.80
2023-02-08T06:49:52.461Z,28.40
2023-02-08T06:50:51.966Z,27.10
2023-02-08T06:51:51.765Z,31.60
2023-02-08T06:52:52.267Z,26.50
2023-02-08T06:53:51.655Z,28.60
2023-02-08T06:54:52.480Z,26.20
2023-02-08T06:55:51.614Z,26.40
2023-02-08T06:56:53.647Z,28.90
2023-02-08T06:57:52.434Z,26.30
2023-02-08T06:58:52.617Z,28.70
2023-02-08T06:59:52.002Z,26.20
2023-02-08T07:00:52.059Z,28.20
2023-02-08T07:01:52.332Z,27.50
2023-02-08T07:02:51.721Z,26.60
2023-02-08T07:03:52.391Z,25.40
2023-02-08T07:04:51.734Z,27.50
2023-02-08T07:06:04.105Z,26.90
2023-02-08T07:06:52.070Z,28.90
2023-02-08T07:07:52.510Z,31.30
2023-02-08T07:08:51.761Z,26.30
2023-02-08T07:09:51.971Z,27.70
2023-02-08T07:10:51.531Z,25.50
2023-02-08T07:11:51.520Z,26.80
2023-02-08T07:12:51.542Z,28.50
2023-02-08T07:13:51.517Z,27.50
2023-02-08T07:14:51.600Z,25.20
2023-02-08T07:15:51.529Z,28.80
2023-02-08T07:16:51.854Z,29.60
2023-02-08T07:17:51.750Z,31.10
2023-02-08T07:18:51.563Z,26.90
2023-02-08T07:19:51.480Z,28.80
2023-02-08T07:20:51.500Z,30.00
2023-02-08T07:21:51.576Z,28.90
2023-02-08T07:22:51.680Z,28.70
2023-02-08T07:23:51.466Z,28.50
2023-02-08T07:24:51.618Z,26.40
2023-02-08T07:25:51.464Z,25.80
2023-02-08T07:26:52.226Z,23.70
2023-02-08T07:27:51.470Z,23.60
2023-02-08T07:28:51.617Z,26.70
2023-02-08T07:29:51.623Z,26.10
2023-02-08T07:30:51.673Z,22.50
2023-02-08T07:31:51.460Z,25.30
2023-02-08T07:32:51.643Z,26.80
2023-02-08T07:33:51.651Z,30.10
2023-02-08T07:34:51.665Z,21.90
2023-02-08T07:35:51.670Z,22.50
2023-02-08T07:36:51.681Z,22.30
2023-02-08T07:37:51.544Z,21.90
2023-02-08T07:38:51.759Z,17.80
2023-02-08T07:39:51.763Z,18.50
2023-02-08T07:40:51.782Z,22.40
2023-02-08T07:41:51.361Z,19.40
2023-02-08T07:42:51.784Z,22.30
2023-02-08T07:43:51.791Z,22.70
2023-02-08T07:44:51.818Z,21.10
2023-02-08T07:45:51.843Z,21.30
2023-02-08T07:46:51.612Z,22.20
2023-02-08T07:47:51.832Z,24.70
2023-02-08T07:48:51.960Z,24.90
2023-02-08T07:49:51.972Z,30.20
2023-02-08T07:50:51.307Z,33.20
2023-02-08T07:51:51.322Z,25.50
2023-02-08T07:52:51.338Z,28.50
2023-02-08T07:53:51.378Z,26.90
2023-02-08T07:54:51.603Z,24.60
2023-02-08T07:55:51.349Z,25.50
2023-02-08T07:56:51.536Z,22.30
2023-02-08T07:57:51.297Z,26.80
2023-02-08T07:58:51.287Z,22.70
2023-02-08T07:59:54.003Z,26.50
2023-02-08T08:00:51.635Z,20.60
2023-02-08T08:01:51.274Z,20.40
2023-02-08T08:02:51.854Z,21.70
2023-02-08T08:03:51.575Z,19.10
2023-02-08T08:04:51.464Z,19.80
2023-02-08T08:05:54.120Z,21.00
2023-02-08T08:06:52.308Z,19.10
2023-02-08T08:07:51.485Z,21.80
2023-02-08T08:08:51.963Z,17.20
2023-02-08T08:09:51.569Z,16.00
2023-02-08T08:10:51.215Z,18.20
2023-02-08T08:11:52.013Z,18.40
2023-02-08T08:12:51.196Z,17.10
2023-02-08T08:13:51.530Z,16.80
2023-02-08T08:14:52.023Z,14.70
2023-02-08T08:15:51.150Z,18.10
2023-02-08T08:16:51.160Z,16.20
2023-02-08T08:17:51.189Z,20.10
2023-02-08T08:18:51.220Z,18.60
2023-02-08T08:19:51.369Z,19.90
2023-02-08T08:20:51.186Z,17.70
2023-02-08T08:21:51.393Z,18.20
2023-02-08T08:22:51.414Z,15.90
2023-02-08T08:23:51.182Z,16.90
2023-02-08T08:24:51.223Z,16.80
2023-02-08T08:25:51.800Z,21.90
2023-02-08T08:26:51.090Z,18.00
2023-02-08T08:27:51.299Z,19.20
2023-02-08T08:28:51.140Z,18.90
2023-02-08T08:29:53.660Z,19.50
2023-02-08T08:30:51.309Z,15.90
2023-02-08T08:31:51.360Z,16.00
2023-02-08T08:32:51.056Z,15.80
2023-02-08T08:33:51.305Z,16.50
2023-02-08T08:34:51.465Z,16.70
2023-02-08T08:35:51.064Z,17.90
2023-02-08T08:36:51.154Z,17.10
2023-02-08T08:37:51.494Z,12.90
2023-02-08T08:38:51.542Z,14.20
2023-02-08T08:39:51.302Z,17.80
2023-02-08T08:40:51.711Z,14.70
2023-02-08T08:41:51.104Z,13.90
2023-02-08T08:42:50.996Z,14.50
2023-02-08T08:43:51.169Z,18.20
2023-02-08T08:44:51.740Z,18.80
2023-02-08T08:45:52.930Z,17.00
2023-02-08T08:46:50.973Z,13.30
2023-02-08T08:47:51.148Z,14.70
2023-02-08T08:48:50.958Z,13.90
2023-02-08T08:49:51.777Z,22.60
2023-02-08T08:50:53.650Z,31.50
2023-02-08T08:51:51.798Z,64.90
2023-02-08T08:52:51.954Z,132.20
2023-02-08T08:53:51.814Z,309.10
2023-02-08T08:54:51.397Z,141.00
2023-02-08T08:55:50.996Z,135.50
2023-02-08T08:56:51.775Z,93.90
2023-02-08T08:57:51.939Z,97.10
2023-02-08T08:58:51.018Z,90.40
2023-02-08T08:59:51.635Z,66.20
2023-02-08T09:00:51.914Z,46.40
2023-02-08T09:01:51.860Z,59.10
2023-02-08T09:02:51.251Z,50.20
2023-02-08T09:03:50.868Z,42.60
2023-02-08T09:04:50.875Z,38.60
2023-02-08T09:05:50.860Z,40.80
2023-02-08T09:06:50.964Z,32.50
2023-02-08T09:07:50.925Z,27.90
2023-02-08T09:08:51.868Z,31.30
2023-02-08T09:09:51.089Z,36.30
2023-02-08T09:10:50.886Z,30.30
2023-02-08T09:11:50.937Z,22.50
2023-02-08T09:12:51.174Z,19.90
2023-02-08T09:13:50.796Z,19.30
2023-02-08T09:14:50.792Z,22.50
2023-02-08T09:15:50.960Z,19.80
2023-02-08T09:16:50.778Z,20.60
2023-02-08T09:17:50.774Z,21.80
2023-02-08T09:18:50.765Z,20.40
2023-02-08T09:19:50.743Z,19.40
2023-02-08T09:20:50.766Z,20.70
2023-02-08T09:21:50.859Z,21.90
2023-02-08T09:22:50.774Z,21.30
2023-02-08T09:23:50.781Z,20.00
2023-02-08T09:24:50.791Z,17.30
2023-02-08T09:25:50.722Z,20.10
2023-02-08T09:26:50.835Z,20.00
2023-02-08T09:27:50.847Z,19.00
2023-02-08T09:28:51.020Z,17.40
2023-02-08T09:29:51.017Z,21.00
2023-02-08T09:30:51.043Z,21.20
2023-02-08T09:31:50.911Z,18.50
2023-02-08T09:32:51.050Z,19.40
2023-02-08T09:33:50.680Z,17.10
2023-02-08T09:34:50.686Z,18.40
2023-02-08T09:35:51.072Z,18.10
2023-02-08T09:36:51.076Z,16.00
2023-02-08T09:37:50.879Z,16.70
2023-02-08T09:38:50.661Z,18.70
2023-02-08T09:39:50.735Z,15.00
2023-02-08T09:40:50.722Z,16.10
2023-02-08T09:41:51.109Z,15.70
2023-02-08T09:42:50.640Z,18.70
2023-02-08T09:43:50.628Z,17.00
2023-02-08T09:44:50.728Z,16.20
2023-02-08T09:45:59.872Z,17.50
2023-02-08T09:46:50.676Z,17.30
2023-02-08T09:47:50.587Z,17.10
2023-02-08T09:48:50.628Z,20.30
2023-02-08T09:49:50.574Z,16.70
2023-02-08T09:50:50.589Z,15.20
2023-02-08T09:51:50.996Z,18.00
2023-02-08T09:52:50.554Z,17.40
2023-02-08T09:53:51.541Z,19.40
2023-02-08T09:54:50.546Z,19.30
2023-02-08T09:55:50.576Z,16.60
2023-02-08T09:56:50.536Z,15.50
2023-02-08T09:57:50.599Z,13.20
2023-02-08T09:58:50.669Z,14.00
2023-02-08T09:59:51.516Z,20.50
2023-02-08T10:00:50.975Z,17.80
2023-02-08T10:01:50.493Z,16.40
2023-02-08T10:02:50.497Z,14.70
2023-02-08T10:03:50.986Z,15.20
2023-02-08T10:04:50.909Z,15.70
2023-02-08T10:05:50.505Z,14.10
2023-02-08T10:06:50.481Z,16.30
2023-02-08T10:07:50.490Z,16.30
2023-02-08T10:08:50.493Z,13.90
2023-02-08T10:09:50.523Z,13.30
2023-02-08T10:10:50.458Z,13.20
2023-02-08T10:11:50.440Z,14.30
2023-02-08T10:12:50.721Z,13.50
2023-02-08T10:13:50.732Z,12.70
2023-02-08T10:14:50.701Z,13.20
2023-02-08T10:15:50.950Z,12.20
2023-02-08T10:16:50.409Z,13.50
2023-02-08T10:17:51.083Z,10.20
2023-02-08T10:18:50.509Z,13.00
2023-02-08T10:19:50.389Z,11.30
2023-02-08T10:20:50.422Z,12.30
2023-02-08T10:21:50.456Z,11.30
2023-02-08T10:22:50.460Z,11.30
2023-02-08T10:23:50.578Z,11.80
2023-02-08T10:24:50.354Z,13.10
2023-02-08T10:25:50.406Z,12.10
2023-02-08T10:26:50.406Z,11.40
2023-02-08T10:27:50.865Z,10.70
2023-02-08T10:28:52.360Z,11.40
2023-02-08T10:29:50.877Z,12.80
2023-02-08T10:30:50.450Z,13.10
2023-02-08T10:31:50.906Z,13.80
2023-02-08T10:32:51.085Z,10.50
2023-02-08T10:33:51.066Z,10.90
2023-02-08T10:34:51.082Z,11.60
2023-02-08T10:35:50.677Z,11.90
2023-02-08T10:36:50.314Z,11.40
2023-02-08T10:37:51.329Z,11.60
2023-02-08T10:38:50.294Z,14.00
2023-02-08T10:39:50.494Z,11.40
2023-02-08T10:40:51.272Z,9.40
2023-02-08T10:41:51.162Z,14.30
2023-02-08T10:42:50.252Z,11.00
2023-02-08T10:43:50.308Z,12.00
2023-02-08T10:44:50.290Z,11.80
2023-02-08T10:45:50.795Z,11.70
2023-02-08T10:46:50.549Z,12.20
2023-02-08T10:47:50.339Z,13.30
2023-02-08T10:48:50.358Z,11.00
2023-02-08T10:49:50.758Z,10.10
2023-02-08T10:50:51.066Z,13.20
2023-02-08T10:51:50.260Z,12.60
2023-02-08T10:52:50.788Z,14.70
2023-02-08T10:53:50.415Z,14.60
2023-02-08T10:54:50.195Z,13.90
2023-02-08T10:55:50.344Z,13.90
2023-02-08T10:56:50.615Z,13.10
2023-02-08T10:57:50.428Z,11.70
2023-02-08T10:58:50.221Z,11.20
2023-02-08T10:59:50.221Z,11.30
2023-02-08T11:00:50.180Z,9.40
2023-02-08T11:01:50.435Z,12.20
2023-02-08T11:02:50.445Z,10.50
2023-02-08T11:03:50.290Z,12.20
2023-02-08T11:04:50.291Z,10.90
2023-02-08T11:05:50.297Z,10.70
2023-02-08T11:06:50.295Z,11.80
2023-02-08T11:07:50.298Z,11.40
2023-02-08T11:08:50.292Z,11.90
2023-02-08T11:09:50.279Z,10.20
2023-02-08T11:10:50.279Z,9.50
2023-02-08T11:11:50.518Z,9.60
2023-02-08T11:12:50.297Z,8.90
2023-02-08T11:13:50.097Z,12.20
2023-02-08T11:14:50.537Z,12.10
2023-02-08T11:15:50.748Z,11.40
2023-02-08T11:16:50.162Z,12.10
2023-02-08T11:17:50.153Z,12.20
2023-02-08T11:18:50.167Z,14.90
2023-02-08T11:19:50.873Z,11.70
2023-02-08T11:20:50.993Z,13.10
2023-02-08T11:21:50.567Z,11.00
2023-02-08T11:22:50.158Z,14.10
2023-02-08T11:23:50.366Z,13.80
2023-02-08T11:24:50.878Z,12.30
2023-02-08T11:25:50.776Z,12.00
2023-02-08T11:26:50.796Z,11.10
2023-02-08T11:27:50.168Z,10.20
2023-02-08T11:28:50.197Z,10.00
2023-02-08T11:29:50.929Z,11.00
2023-02-08T11:30:50.821Z,10.80
2023-02-08T11:31:50.346Z,9.80
2023-02-08T11:32:50.023Z,11.40
2023-02-08T11:33:50.275Z,9.30
2023-02-08T11:34:50.033Z,11.30
2023-02-08T11:35:50.245Z,10.50
2023-02-08T11:36:50.866Z,10.30
2023-02-08T11:37:49.897Z,9.60
2023-02-08T11:38:49.891Z,9.80
2023-02-08T11:39:49.895Z,9.70
2023-02-08T11:40:49.873Z,8.90
2023-02-08T11:41:49.899Z,10.70
2023-02-08T11:42:49.885Z,11.80
2023-02-08T11:43:49.902Z,11.20
2023-02-08T11:44:49.912Z,10.70
2023-02-08T11:45:49.942Z,12.70
2023-02-08T11:46:49.912Z,10.50
2023-02-08T11:47:49.921Z,8.80
2023-02-08T11:48:49.932Z,8.90
2023-02-08T11:49:49.890Z,10.70
2023-02-08T11:50:49.940Z,8.80
2023-02-08T11:51:49.950Z,11.00
2023-02-08T11:52:49.964Z,10.00
2023-02-08T11:53:49.994Z,10.50
2023-02-08T11:54:49.784Z,9.80
2023-02-08T11:55:49.958Z,9.00
2023-02-08T11:56:49.784Z,10.50
2023-02-08T11:57:50.049Z,10.40
2023-02-08T11:58:49.799Z,10.90
2023-02-08T11:59:50.064Z,11.20
2023-02-08T12:00:50.040Z,10.70
2023-02-08T12:01:50.071Z,9.90
2023-02-08T12:02:50.033Z,9.90
2023-02-08T12:03:50.252Z,9.40
2023-02-08T12:04:50.260Z,10.00
2023-02-08T12:05:50.270Z,10.20
2023-02-08T12:06:49.857Z,10.40
2023-02-08T12:07:50.029Z,10.70
2023-02-08T12:08:49.692Z,9.40
2023-02-08T12:09:49.711Z,9.40
2023-02-08T12:10:49.674Z,12.10
2023-02-08T12:11:49.700Z,11.90
2023-02-08T12:12:49.679Z,9.00
2023-02-08T12:13:49.705Z,12.00
2023-02-08T12:14:49.909Z,9.40
2023-02-08T12:15:58.292Z,9.90
2023-02-08T12:16:49.923Z,9.10
2023-02-08T12:17:49.923Z,9.30
2023-02-08T12:18:49.972Z,10.60
2023-02-08T12:19:49.785Z,9.20
2023-02-08T12:20:49.595Z,10.50
2023-02-08T12:21:49.615Z,8.90
2023-02-08T12:22:49.942Z,11.00
2023-02-08T12:23:50.399Z,9.70
2023-02-08T12:24:49.573Z,9.50
2023-02-08T12:25:50.325Z,8.50
2023-02-08T12:26:49.784Z,10.00
2023-02-08T12:27:50.479Z,9.00
2023-02-08T12:28:50.370Z,9.80
2023-02-08T12:29:50.291Z,10.20
2023-02-08T12:30:50.101Z,10.20
2023-02-08T12:31:50.292Z,9.40
2023-02-08T12:32:50.510Z,8.20
2023-02-08T12:33:50.523Z,11.20
2023-02-08T12:34:49.611Z,9.50
2023-02-08T12:36:03.088Z,11.00
2023-02-08T12:36:50.386Z,8.90
2023-02-08T12:37:49.876Z,9.20
2023-02-08T12:38:49.475Z,11.00
2023-02-08T12:39:49.488Z,8.20
2023-02-08T12:40:50.486Z,7.90
2023-02-08T12:41:50.099Z,10.70
2023-02-08T12:42:50.073Z,9.00
2023-02-08T12:43:49.444Z,9.90
2023-02-08T12:44:49.673Z,9.90
2023-02-08T12:45:49.505Z,9.80
2023-02-08T12:46:50.425Z,7.20
2023-02-08T12:48:03.270Z,7.20
2023-02-08T12:48:49.411Z,7.00
2023-02-08T12:49:49.530Z,9.30
2023-02-08T12:50:49.554Z,7.20
2023-02-08T12:51:49.423Z,7.80
2023-02-08T12:52:49.546Z,8.50
2023-02-08T12:53:49.748Z,8.90
2023-02-08T12:54:49.537Z,8.00